sensor_id;sensor_type;location;lat;lon;timestamp;P1;durP1;ratioP1;P2;durP2;ratioP2
23952;SDS011;12163;49.316;6.092;2022-10-22T00:02:03;23.55;;;9.73;;
23952;SDS011;12163;49.316;6.092;2022-10-22T00:04:31;22.98;;;9.60;;
23952;SDS011;12163;49.316;6.092;2022-10-22T00:07:00;33.13;;;10.70;;
23952;SDS011;12163;49.316;6.092;2022-10-22T00:09:27;33.58;;;9.27;;
23952;SDS011;12163;49.316;6.092;2022-10-22T00:11:53;23.67;;;9.35;;
23952;SDS011;12163;49.316;6.092;2022-10-22T00:14:20;26.05;;;9.95;;
23952;SDS011;12163;49.316;6.092;2022-10-22T00:16:46;35.63;;;11.52;;
23952;SDS011;12163;49.316;6.092;2022-10-22T00:19:13;27.20;;;10.02;;
23952;SDS011;12163;49.316;6.092;2022-10-22T00:21:40;37.70;;;9.73;;
23952;SDS011;12163;49.316;6.092;2022-10-22T00:24:07;24.20;;;8.63;;
23952;SDS011;12163;49.316;6.092;2022-10-22T00:26:33;24.70;;;9.50;;
23952;SDS011;12163;49.316;6.092;2022-10-22T00:29:00;27.15;;;10.02;;
23952;SDS011;12163;49.316;6.092;2022-10-22T00:31:26;26.88;;;9.50;;
23952;SDS011;12163;49.316;6.092;2022-10-22T00:33:53;30.20;;;9.82;;
23952;SDS011;12163;49.316;6.092;2022-10-22T00:36:19;30.73;;;9.65;;
23952;SDS011;12163;49.316;6.092;2022-10-22T00:38:47;33.92;;;9.90;;
23952;SDS011;12163;49.316;6.092;2022-10-22T00:41:14;21.88;;;8.48;;
23952;SDS011;12163;49.316;6.092;2022-10-22T00:47:01;22.88;;;8.57;;
23952;SDS011;12163;49.316;6.092;2022-10-22T00:49:27;27.30;;;8.77;;
23952;SDS011;12163;49.316;6.092;2022-10-22T00:51:54;20.73;;;7.80;;
23952;SDS011;12163;49.316;6.092;2022-10-22T00:54:21;14.13;;;6.07;;
23952;SDS011;12163;49.316;6.092;2022-10-22T00:56:47;18.70;;;5.68;;
23952;SDS011;12163;49.316;6.092;2022-10-22T00:59:14;12.45;;;4.18;;
23952;SDS011;12163;49.316;6.092;2022-10-22T01:01:42;15.30;;;3.30;;
23952;SDS011;12163;49.316;6.092;2022-10-22T01:04:10;13.43;;;3.10;;
23952;SDS011;12163;49.316;6.092;2022-10-22T01:06:37;12.45;;;3.53;;
23952;SDS011;12163;49.316;6.092;2022-10-22T01:09:13;7.15;;;2.70;;
23952;SDS011;12163;49.316;6.092;2022-10-22T01:17:30;4.38;;;2.72;;
23952;SDS011;12163;49.316;6.092;2022-10-22T01:31:07;9.55;;;2.33;;
23952;SDS011;12163;49.316;6.092;2022-10-22T01:33:39;9.63;;;2.95;;
23952;SDS011;12163;49.316;6.092;2022-10-22T01:36:07;7.28;;;2.00;;
23952;SDS011;12163;49.316;6.092;2022-10-22T01:38:35;10.15;;;2.45;;
23952;SDS011;12163;49.316;6.092;2022-10-22T01:41:04;6.85;;;1.70;;
23952;SDS011;12163;49.316;6.092;2022-10-22T01:43:32;9.93;;;2.05;;
23952;SDS011;12163;49.316;6.092;2022-10-22T01:46:00;6.13;;;1.92;;
23952;SDS011;12163;49.316;6.092;2022-10-22T01:57:32;7.13;;;1.57;;
23952;SDS011;12163;49.316;6.092;2022-10-22T02:00:09;4.65;;;1.70;;
23952;SDS011;12163;49.316;6.092;2022-10-22T02:07:57;10.52;;;1.80;;
23952;SDS011;12163;49.316;6.092;2022-10-22T02:10:28;5.55;;;1.45;;
23952;SDS011;12163;49.316;6.092;2022-10-22T02:12:55;15.18;;;1.95;;
23952;SDS011;12163;49.316;6.092;2022-10-22T02:15:25;7.90;;;1.33;;
23952;SDS011;12163;49.316;6.092;2022-10-22T02:17:55;5.45;;;1.80;;
23952;SDS011;12163;49.316;6.092;2022-10-22T02:20:27;9.52;;;2.03;;
23952;SDS011;12163;49.316;6.092;2022-10-22T02:22:56;8.52;;;1.50;;
23952;SDS011;12163;49.316;6.092;2022-10-22T02:25:26;5.43;;;1.40;;
23952;SDS011;12163;49.316;6.092;2022-10-22T02:30:26;5.47;;;1.50;;
23952;SDS011;12163;49.316;6.092;2022-10-22T02:35:54;3.47;;;1.30;;
23952;SDS011;12163;49.316;6.092;2022-10-22T02:38:21;7.40;;;1.58;;
23952;SDS011;12163;49.316;6.092;2022-10-22T02:40:49;4.05;;;1.10;;
23952;SDS011;12163;49.316;6.092;2022-10-22T02:43:16;5.80;;;1.50;;
23952;SDS011;12163;49.316;6.092;2022-10-22T02:45:44;2.83;;;1.35;;
23952;SDS011;12163;49.316;6.092;2022-10-22T02:48:11;5.55;;;1.52;;
23952;SDS011;12163;49.316;6.092;2022-10-22T02:50:38;4.20;;;1.35;;
23952;SDS011;12163;49.316;6.092;2022-10-22T02:53:04;4.68;;;1.05;;
23952;SDS011;12163;49.316;6.092;2022-10-22T02:55:31;3.95;;;1.20;;
23952;SDS011;12163;49.316;6.092;2022-10-22T02:57:58;11.05;;;1.33;;
23952;SDS011;12163;49.316;6.092;2022-10-22T03:00:24;8.20;;;1.00;;
23952;SDS011;12163;49.316;6.092;2022-10-22T03:02:51;2.83;;;1.08;;
23952;SDS011;12163;49.316;6.092;2022-10-22T03:05:17;6.40;;;0.90;;
23952;SDS011;12163;49.316;6.092;2022-10-22T03:07:44;4.20;;;1.10;;
23952;SDS011;12163;49.316;6.092;2022-10-22T03:10:10;3.67;;;0.57;;
23952;SDS011;12163;49.316;6.092;2022-10-22T03:12:37;3.45;;;0.70;;
23952;SDS011;12163;49.316;6.092;2022-10-22T03:15:04;5.90;;;1.10;;
23952;SDS011;12163;49.316;6.092;2022-10-22T03:17:31;3.05;;;0.70;;
23952;SDS011;12163;49.316;6.092;2022-10-22T03:19:57;4.97;;;0.70;;
23952;SDS011;12163;49.316;6.092;2022-10-22T03:22:25;3.75;;;0.90;;
23952;SDS011;12163;49.316;6.092;2022-10-22T03:24:56;5.13;;;0.55;;
23952;SDS011;12163;49.316;6.092;2022-10-22T03:27:25;2.22;;;0.60;;
23952;SDS011;12163;49.316;6.092;2022-10-22T03:29:54;3.28;;;0.77;;
23952;SDS011;12163;49.316;6.092;2022-10-22T03:32:23;1.65;;;0.50;;
23952;SDS011;12163;49.316;6.092;2022-10-22T03:34:49;2.65;;;0.90;;
23952;SDS011;12163;49.316;6.092;2022-10-22T03:37:16;1.58;;;0.73;;
23952;SDS011;12163;49.316;6.092;2022-10-22T03:39:43;1.63;;;0.70;;
23952;SDS011;12163;49.316;6.092;2022-10-22T03:42:10;4.05;;;0.90;;
23952;SDS011;12163;49.316;6.092;2022-10-22T03:44:38;5.57;;;0.60;;
23952;SDS011;12163;49.316;6.092;2022-10-22T03:47:05;1.58;;;0.68;;
23952;SDS011;12163;49.316;6.092;2022-10-22T03:49:32;5.65;;;0.80;;
23952;SDS011;12163;49.316;6.092;2022-10-22T03:52:05;3.83;;;0.50;;
23952;SDS011;12163;49.316;6.092;2022-10-22T03:54:34;2.25;;;0.50;;
23952;SDS011;12163;49.316;6.092;2022-10-22T03:57:01;1.50;;;0.45;;
23952;SDS011;12163;49.316;6.092;2022-10-22T03:59:39;3.22;;;0.65;;
23952;SDS011;12163;49.316;6.092;2022-10-22T04:02:08;5.05;;;0.68;;
23952;SDS011;12163;49.316;6.092;2022-10-22T04:04:36;4.22;;;0.70;;
23952;SDS011;12163;49.316;6.092;2022-10-22T04:07:04;5.28;;;0.88;;
23952;SDS011;12163;49.316;6.092;2022-10-22T04:09:32;1.77;;;0.60;;
23952;SDS011;12163;49.316;6.092;2022-10-22T04:11:59;1.38;;;0.68;;
23952;SDS011;12163;49.316;6.092;2022-10-22T04:14:26;4.57;;;0.80;;
23952;SDS011;12163;49.316;6.092;2022-10-22T04:16:53;2.58;;;0.75;;
23952;SDS011;12163;49.316;6.092;2022-10-22T04:19:20;3.55;;;0.60;;
23952;SDS011;12163;49.316;6.092;2022-10-22T04:21:47;3.13;;;0.85;;
23952;SDS011;12163;49.316;6.092;2022-10-22T04:24:13;3.85;;;0.80;;
23952;SDS011;12163;49.316;6.092;2022-10-22T04:26:40;2.35;;;0.90;;
23952;SDS011;12163;49.316;6.092;2022-10-22T04:29:07;2.95;;;0.73;;
23952;SDS011;12163;49.316;6.092;2022-10-22T04:31:40;2.75;;;0.60;;
23952;SDS011;12163;49.316;6.092;2022-10-22T04:34:07;2.00;;;0.70;;
23952;SDS011;12163;49.316;6.092;2022-10-22T04:36:33;4.85;;;0.85;;
23952;SDS011;12163;49.316;6.092;2022-10-22T04:39:00;1.92;;;0.80;;
23952;SDS011;12163;49.316;6.092;2022-10-22T04:41:31;3.42;;;1.02;;
23952;SDS011;12163;49.316;6.092;2022-10-22T04:43:59;3.45;;;0.80;;
23952;SDS011;12163;49.316;6.092;2022-10-22T04:46:28;1.73;;;0.77;;
23952;SDS011;12163;49.316;6.092;2022-10-22T04:48:56;2.92;;;0.90;;
23952;SDS011;12163;49.316;6.092;2022-10-22T04:51:23;2.65;;;0.90;;
23952;SDS011;12163;49.316;6.092;2022-10-22T04:53:51;4.18;;;1.15;;
23952;SDS011;12163;49.316;6.092;2022-10-22T04:56:22;6.60;;;1.20;;
23952;SDS011;12163;49.316;6.092;2022-10-22T04:58:52;4.40;;;1.00;;
23952;SDS011;12163;49.316;6.092;2022-10-22T05:01:21;1.73;;;0.63;;
23952;SDS011;12163;49.316;6.092;2022-10-22T05:03:50;2.08;;;1.02;;
23952;SDS011;12163;49.316;6.092;2022-10-22T05:06:18;2.17;;;1.00;;
23952;SDS011;12163;49.316;6.092;2022-10-22T05:08:46;1.88;;;0.90;;
23952;SDS011;12163;49.316;6.092;2022-10-22T05:11:17;1.10;;;0.70;;
23952;SDS011;12163;49.316;6.092;2022-10-22T05:13:49;6.15;;;0.80;;
23952;SDS011;12163;49.316;6.092;2022-10-22T05:16:15;1.65;;;0.80;;
23952;SDS011;12163;49.316;6.092;2022-10-22T05:18:43;1.30;;;0.68;;
23952;SDS011;12163;49.316;6.092;2022-10-22T05:21:11;2.53;;;0.60;;
23952;SDS011;12163;49.316;6.092;2022-10-22T05:26:10;5.10;;;0.90;;
23952;SDS011;12163;49.316;6.092;2022-10-22T05:28:38;1.48;;;0.70;;
23952;SDS011;12163;49.316;6.092;2022-10-22T05:31:06;1.65;;;0.65;;
23952;SDS011;12163;49.316;6.092;2022-10-22T05:33:34;4.88;;;0.60;;
23952;SDS011;12163;49.316;6.092;2022-10-22T05:36:01;1.20;;;0.50;;
23952;SDS011;12163;49.316;6.092;2022-10-22T05:38:30;2.05;;;0.65;;
23952;SDS011;12163;49.316;6.092;2022-10-22T05:40:58;2.72;;;0.60;;
23952;SDS011;12163;49.316;6.092;2022-10-22T05:43:31;2.58;;;0.45;;
23952;SDS011;12163;49.316;6.092;2022-10-22T05:46:01;2.33;;;0.57;;
23952;SDS011;12163;49.316;6.092;2022-10-22T05:51:01;2.88;;;0.50;;
23952;SDS011;12163;49.316;6.092;2022-10-22T05:53:31;4.00;;;0.70;;
23952;SDS011;12163;49.316;6.092;2022-10-22T05:55:59;3.90;;;0.60;;
23952;SDS011;12163;49.316;6.092;2022-10-22T05:58:27;3.25;;;0.70;;
23952;SDS011;12163;49.316;6.092;2022-10-22T06:00:53;2.10;;;0.65;;
23952;SDS011;12163;49.316;6.092;2022-10-22T06:03:20;3.28;;;0.60;;
23952;SDS011;12163;49.316;6.092;2022-10-22T06:05:46;7.75;;;0.60;;
23952;SDS011;12163;49.316;6.092;2022-10-22T06:08:13;2.40;;;0.38;;
23952;SDS011;12163;49.316;6.092;2022-10-22T06:10:44;2.38;;;0.50;;
23952;SDS011;12163;49.316;6.092;2022-10-22T06:13:10;1.52;;;0.43;;
23952;SDS011;12163;49.316;6.092;2022-10-22T06:15:37;3.28;;;0.50;;
23952;SDS011;12163;49.316;6.092;2022-10-22T06:18:03;3.15;;;0.52;;
23952;SDS011;12163;49.316;6.092;2022-10-22T06:20:32;2.03;;;0.60;;
23952;SDS011;12163;49.316;6.092;2022-10-22T06:22:59;3.30;;;0.63;;
23952;SDS011;12163;49.316;6.092;2022-10-22T06:25:26;5.13;;;0.90;;
23952;SDS011;12163;49.316;6.092;2022-10-22T06:27:53;1.05;;;0.50;;
23952;SDS011;12163;49.316;6.092;2022-10-22T06:30:19;1.65;;;0.45;;
23952;SDS011;12163;49.316;6.092;2022-10-22T06:32:46;2.83;;;0.80;;
23952;SDS011;12163;49.316;6.092;2022-10-22T06:35:12;3.30;;;0.70;;
23952;SDS011;12163;49.316;6.092;2022-10-22T06:37:39;2.47;;;0.60;;
23952;SDS011;12163;49.316;6.092;2022-10-22T06:40:06;1.92;;;0.70;;
23952;SDS011;12163;49.316;6.092;2022-10-22T06:42:33;4.15;;;0.90;;
23952;SDS011;12163;49.316;6.092;2022-10-22T06:45:00;10.73;;;1.08;;
23952;SDS011;12163;49.316;6.092;2022-10-22T06:47:31;4.32;;;1.15;;
23952;SDS011;12163;49.316;6.092;2022-10-22T06:49:58;2.28;;;0.80;;
23952;SDS011;12163;49.316;6.092;2022-10-22T06:52:25;3.83;;;0.70;;
23952;SDS011;12163;49.316;6.092;2022-10-22T06:54:51;7.75;;;0.80;;
23952;SDS011;12163;49.316;6.092;2022-10-22T06:57:18;3.70;;;0.93;;
23952;SDS011;12163;49.316;6.092;2022-10-22T06:59:45;6.28;;;0.60;;
23952;SDS011;12163;49.316;6.092;2022-10-22T07:02:11;4.15;;;0.98;;
23952;SDS011;12163;49.316;6.092;2022-10-22T07:04:38;4.30;;;0.90;;
23952;SDS011;12163;49.316;6.092;2022-10-22T07:07:04;2.88;;;0.68;;
23952;SDS011;12163;49.316;6.092;2022-10-22T07:09:31;2.03;;;0.57;;
23952;SDS011;12163;49.316;6.092;2022-10-22T07:11:57;6.45;;;0.80;;
23952;SDS011;12163;49.316;6.092;2022-10-22T07:14:24;7.05;;;1.13;;
23952;SDS011;12163;49.316;6.092;2022-10-22T07:16:51;1.42;;;0.50;;
23952;SDS011;12163;49.316;6.092;2022-10-22T07:19:17;4.85;;;0.80;;
23952;SDS011;12163;49.316;6.092;2022-10-22T07:21:44;4.03;;;0.98;;
23952;SDS011;12163;49.316;6.092;2022-10-22T07:24:10;7.28;;;1.00;;
23952;SDS011;12163;49.316;6.092;2022-10-22T07:26:37;3.63;;;1.48;;
23952;SDS011;12163;49.316;6.092;2022-10-22T07:29:04;3.60;;;1.85;;
23952;SDS011;12163;49.316;6.092;2022-10-22T07:31:31;4.65;;;0.90;;
23952;SDS011;12163;49.316;6.092;2022-10-22T07:33:57;5.15;;;0.80;;
23952;SDS011;12163;49.316;6.092;2022-10-22T07:36:24;3.85;;;0.80;;
23952;SDS011;12163;49.316;6.092;2022-10-22T07:38:55;4.97;;;0.80;;
23952;SDS011;12163;49.316;6.092;2022-10-22T07:41:23;3.78;;;0.70;;
23952;SDS011;12163;49.316;6.092;2022-10-22T07:43:50;5.07;;;1.38;;
23952;SDS011;12163;49.316;6.092;2022-10-22T07:46:17;5.97;;;1.05;;
23952;SDS011;12163;49.316;6.092;2022-10-22T07:48:44;6.57;;;0.93;;
23952;SDS011;12163;49.316;6.092;2022-10-22T07:51:11;4.55;;;0.85;;
23952;SDS011;12163;49.316;6.092;2022-10-22T07:53:38;4.13;;;0.80;;
23952;SDS011;12163;49.316;6.092;2022-10-22T07:56:05;1.48;;;0.60;;
23952;SDS011;12163;49.316;6.092;2022-10-22T07:58:31;5.50;;;1.10;;
23952;SDS011;12163;49.316;6.092;2022-10-22T08:00:59;3.33;;;0.77;;
23952;SDS011;12163;49.316;6.092;2022-10-22T08:03:27;3.63;;;0.70;;
23952;SDS011;12163;49.316;6.092;2022-10-22T08:05:54;4.78;;;0.82;;
23952;SDS011;12163;49.316;6.092;2022-10-22T08:08:21;4.53;;;0.85;;
23952;SDS011;12163;49.316;6.092;2022-10-22T08:10:54;4.32;;;1.00;;
23952;SDS011;12163;49.316;6.092;2022-10-22T08:13:23;2.88;;;0.93;;
23952;SDS011;12163;49.316;6.092;2022-10-22T08:15:51;1.92;;;0.65;;
23952;SDS011;12163;49.316;6.092;2022-10-22T08:18:22;5.55;;;1.15;;
23952;SDS011;12163;49.316;6.092;2022-10-22T08:20:49;1.50;;;0.75;;
23952;SDS011;12163;49.316;6.092;2022-10-22T08:23:16;5.25;;;1.08;;
23952;SDS011;12163;49.316;6.092;2022-10-22T08:25:42;5.88;;;1.25;;
23952;SDS011;12163;49.316;6.092;2022-10-22T08:28:09;5.07;;;0.70;;
23952;SDS011;12163;49.316;6.092;2022-10-22T08:30:36;4.00;;;0.80;;
23952;SDS011;12163;49.316;6.092;2022-10-22T08:33:04;3.22;;;0.77;;
23952;SDS011;12163;49.316;6.092;2022-10-22T08:35:31;3.85;;;0.80;;
23952;SDS011;12163;49.316;6.092;2022-10-22T08:37:58;3.38;;;0.90;;
23952;SDS011;12163;49.316;6.092;2022-10-22T08:40:29;4.03;;;0.90;;
23952;SDS011;12163;49.316;6.092;2022-10-22T08:48:47;6.82;;;2.00;;
23952;SDS011;12163;49.316;6.092;2022-10-22T08:51:22;4.78;;;2.80;;
23952;SDS011;12163;49.316;6.092;2022-10-22T08:54:06;2.42;;;0.73;;
23952;SDS011;12163;49.316;6.092;2022-10-22T08:56:35;8.73;;;2.90;;
23952;SDS011;12163;49.316;6.092;2022-10-22T08:59:09;6.82;;;1.02;;
23952;SDS011;12163;49.316;6.092;2022-10-22T09:01:43;5.60;;;1.50;;
23952;SDS011;12163;49.316;6.092;2022-10-22T09:06:39;1.88;;;0.70;;
23952;SDS011;12163;49.316;6.092;2022-10-22T09:09:18;2.25;;;0.88;;
23952;SDS011;12163;49.316;6.092;2022-10-22T09:11:47;8.75;;;1.15;;
23952;SDS011;12163;49.316;6.092;2022-10-22T09:14:17;5.60;;;1.20;;
23952;SDS011;12163;49.316;6.092;2022-10-22T09:17:08;8.70;;;1.48;;
23952;SDS011;12163;49.316;6.092;2022-10-22T09:25:22;4.65;;;1.50;;
23952;SDS011;12163;49.316;6.092;2022-10-22T09:27:51;5.85;;;1.30;;
23952;SDS011;12163;49.316;6.092;2022-10-22T09:30:25;10.23;;;1.42;;
23952;SDS011;12163;49.316;6.092;2022-10-22T09:35:33;5.57;;;1.08;;
23952;SDS011;12163;49.316;6.092;2022-10-22T09:38:10;7.13;;;1.10;;
23952;SDS011;12163;49.316;6.092;2022-10-22T09:40:49;4.82;;;1.17;;
23952;SDS011;12163;49.316;6.092;2022-10-22T09:43:17;5.65;;;1.65;;
23952;SDS011;12163;49.316;6.092;2022-10-22T09:45:45;7.80;;;1.85;;
23952;SDS011;12163;49.316;6.092;2022-10-22T09:50:47;6.43;;;1.23;;
23952;SDS011;12163;49.316;6.092;2022-10-22T09:53:29;5.55;;;1.70;;
23952;SDS011;12163;49.316;6.092;2022-10-22T09:56:05;9.48;;;2.08;;
23952;SDS011;12163;49.316;6.092;2022-10-22T09:58:41;9.68;;;1.63;;
23952;SDS011;12163;49.316;6.092;2022-10-22T10:01:15;8.63;;;1.70;;
23952;SDS011;12163;49.316;6.092;2022-10-22T10:03:44;8.45;;;1.55;;
23952;SDS011;12163;49.316;6.092;2022-10-22T10:06:15;7.85;;;1.42;;
23952;SDS011;12163;49.316;6.092;2022-10-22T10:08:43;5.82;;;1.45;;
23952;SDS011;12163;49.316;6.092;2022-10-22T10:11:14;8.32;;;1.70;;
23952;SDS011;12163;49.316;6.092;2022-10-22T10:19:26;15.05;;;1.80;;
23952;SDS011;12163;49.316;6.092;2022-10-22T10:22:00;9.65;;;1.95;;
23952;SDS011;12163;49.316;6.092;2022-10-22T10:27:34;5.80;;;1.45;;
23952;SDS011;12163;49.316;6.092;2022-10-22T10:38:20;7.80;;;1.92;;
23952;SDS011;12163;49.316;6.092;2022-10-22T10:48:59;6.35;;;1.92;;
23952;SDS011;12163;49.316;6.092;2022-10-22T10:59:58;10.13;;;2.08;;
23952;SDS011;12163;49.316;6.092;2022-10-22T11:05:27;10.52;;;1.80;;
23952;SDS011;12163;49.316;6.092;2022-10-22T11:08:04;8.10;;;2.25;;
23952;SDS011;12163;49.316;6.092;2022-10-22T11:11:05;10.65;;;2.03;;
23952;SDS011;12163;49.316;6.092;2022-10-22T11:19:40;9.32;;;1.80;;
23952;SDS011;12163;49.316;6.092;2022-10-22T11:22:25;10.63;;;2.13;;
23952;SDS011;12163;49.316;6.092;2022-10-22T11:25:02;11.52;;;2.53;;
23952;SDS011;12163;49.316;6.092;2022-10-22T11:30:19;10.73;;;1.92;;
23952;SDS011;12163;49.316;6.092;2022-10-22T11:32:50;10.68;;;2.15;;
23952;SDS011;12163;49.316;6.092;2022-10-22T11:37:51;16.02;;;1.90;;
23952;SDS011;12163;49.316;6.092;2022-10-22T11:42:58;13.93;;;2.17;;
23952;SDS011;12163;49.316;6.092;2022-10-22T11:45:31;13.00;;;2.13;;
23952;SDS011;12163;49.316;6.092;2022-10-22T12:08:30;14.65;;;3.70;;
23952;SDS011;12163;49.316;6.092;2022-10-22T12:19:24;9.30;;;1.40;;
23952;SDS011;12163;49.316;6.092;2022-10-22T12:21:53;9.80;;;1.67;;
23952;SDS011;12163;49.316;6.092;2022-10-22T12:24:24;11.80;;;1.75;;
23952;SDS011;12163;49.316;6.092;2022-10-22T12:26:54;10.30;;;2.55;;
23952;SDS011;12163;49.316;6.092;2022-10-22T12:29:21;11.45;;;2.95;;
23952;SDS011;12163;49.316;6.092;2022-10-22T12:31:51;9.10;;;1.85;;
23952;SDS011;12163;49.316;6.092;2022-10-22T12:34:20;6.95;;;1.50;;
23952;SDS011;12163;49.316;6.092;2022-10-22T12:36:49;7.90;;;1.92;;
23952;SDS011;12163;49.316;6.092;2022-10-22T12:39:19;13.02;;;2.08;;
23952;SDS011;12163;49.316;6.092;2022-10-22T12:41:47;23.10;;;7.90;;
23952;SDS011;12163;49.316;6.092;2022-10-22T12:44:15;9.40;;;2.92;;
23952;SDS011;12163;49.316;6.092;2022-10-22T12:46:43;11.50;;;2.65;;
23952;SDS011;12163;49.316;6.092;2022-10-22T12:49:16;9.90;;;3.28;;
23952;SDS011;12163;49.316;6.092;2022-10-22T12:51:46;12.45;;;3.40;;
23952;SDS011;12163;49.316;6.092;2022-10-22T12:54:22;15.45;;;2.70;;
23952;SDS011;12163;49.316;6.092;2022-10-22T12:56:54;17.27;;;4.20;;
23952;SDS011;12163;49.316;6.092;2022-10-22T12:59:32;7.25;;;2.65;;
23952;SDS011;12163;49.316;6.092;2022-10-22T13:02:01;11.32;;;2.58;;
23952;SDS011;12163;49.316;6.092;2022-10-22T13:04:40;9.73;;;2.42;;
23952;SDS011;12163;49.316;6.092;2022-10-22T13:07:15;7.70;;;2.55;;
23952;SDS011;12163;49.316;6.092;2022-10-22T13:09:57;22.75;;;8.65;;
23952;SDS011;12163;49.316;6.092;2022-10-22T13:12:25;13.57;;;4.25;;
23952;SDS011;12163;49.316;6.092;2022-10-22T13:14:53;5.28;;;1.52;;
23952;SDS011;12163;49.316;6.092;2022-10-22T13:17:36;10.35;;;2.13;;
23952;SDS011;12163;49.316;6.092;2022-10-22T13:20:17;8.75;;;2.15;;
23952;SDS011;12163;49.316;6.092;2022-10-22T13:23:03;10.18;;;1.73;;
23952;SDS011;12163;49.316;6.092;2022-10-22T13:25:32;10.68;;;1.70;;
23952;SDS011;12163;49.316;6.092;2022-10-22T13:28:01;10.15;;;2.08;;
23952;SDS011;12163;49.316;6.092;2022-10-22T13:30:54;9.40;;;2.05;;
23952;SDS011;12163;49.316;6.092;2022-10-22T13:33:28;13.88;;;2.15;;
23952;SDS011;12163;49.316;6.092;2022-10-22T13:35:58;8.02;;;1.67;;
23952;SDS011;12163;49.316;6.092;2022-10-22T13:38:26;8.88;;;1.70;;
23952;SDS011;12163;49.316;6.092;2022-10-22T13:40:53;9.63;;;2.08;;
23952;SDS011;12163;49.316;6.092;2022-10-22T13:43:21;9.93;;;2.10;;
23952;SDS011;12163;49.316;6.092;2022-10-22T13:45:50;8.85;;;2.35;;
23952;SDS011;12163;49.316;6.092;2022-10-22T13:48:20;9.93;;;1.90;;
23952;SDS011;12163;49.316;6.092;2022-10-22T13:50:49;8.15;;;1.77;;
23952;SDS011;12163;49.316;6.092;2022-10-22T13:53:18;9.38;;;2.30;;
23952;SDS011;12163;49.316;6.092;2022-10-22T13:55:48;12.43;;;2.00;;
23952;SDS011;12163;49.316;6.092;2022-10-22T13:58:16;8.50;;;2.15;;
23952;SDS011;12163;49.316;6.092;2022-10-22T14:00:46;12.68;;;2.53;;
23952;SDS011;12163;49.316;6.092;2022-10-22T14:03:17;11.05;;;2.17;;
23952;SDS011;12163;49.316;6.092;2022-10-22T14:05:46;8.63;;;2.35;;
23952;SDS011;12163;49.316;6.092;2022-10-22T14:08:15;9.30;;;2.38;;
23952;SDS011;12163;49.316;6.092;2022-10-22T14:10:44;9.10;;;2.05;;
23952;SDS011;12163;49.316;6.092;2022-10-22T14:13:11;9.45;;;2.53;;
23952;SDS011;12163;49.316;6.092;2022-10-22T14:15:39;9.10;;;2.40;;
23952;SDS011;12163;49.316;6.092;2022-10-22T14:18:07;8.50;;;2.00;;
23952;SDS011;12163;49.316;6.092;2022-10-22T14:20:39;10.32;;;2.45;;
23952;SDS011;12163;49.316;6.092;2022-10-22T14:23:12;8.88;;;2.33;;
23952;SDS011;12163;49.316;6.092;2022-10-22T14:25:40;6.28;;;2.05;;
23952;SDS011;12163;49.316;6.092;2022-10-22T14:28:08;5.97;;;2.28;;
23952;SDS011;12163;49.316;6.092;2022-10-22T14:30:36;10.40;;;2.53;;
23952;SDS011;12163;49.316;6.092;2022-10-22T14:33:16;10.27;;;2.20;;
23952;SDS011;12163;49.316;6.092;2022-10-22T14:35:44;10.60;;;2.37;;
23952;SDS011;12163;49.316;6.092;2022-10-22T14:38:13;7.90;;;2.50;;
23952;SDS011;12163;49.316;6.092;2022-10-22T14:40:41;15.45;;;2.50;;
23952;SDS011;12163;49.316;6.092;2022-10-22T14:43:09;8.70;;;2.35;;
23952;SDS011;12163;49.316;6.092;2022-10-22T14:45:38;9.20;;;2.10;;
23952;SDS011;12163;49.316;6.092;2022-10-22T14:48:05;13.02;;;2.75;;
23952;SDS011;12163;49.316;6.092;2022-10-22T14:50:31;12.00;;;2.15;;
23952;SDS011;12163;49.316;6.092;2022-10-22T14:52:58;8.85;;;2.10;;
23952;SDS011;12163;49.316;6.092;2022-10-22T14:55:25;13.98;;;2.20;;
23952;SDS011;12163;49.316;6.092;2022-10-22T14:57:52;16.17;;;3.10;;
23952;SDS011;12163;49.316;6.092;2022-10-22T15:00:19;10.35;;;1.98;;
23952;SDS011;12163;49.316;6.092;2022-10-22T15:02:46;9.35;;;2.65;;
23952;SDS011;12163;49.316;6.092;2022-10-22T15:05:13;7.32;;;2.13;;
23952;SDS011;12163;49.316;6.092;2022-10-22T15:07:40;13.93;;;2.53;;
23952;SDS011;12163;49.316;6.092;2022-10-22T15:10:08;12.27;;;2.35;;
23952;SDS011;12163;49.316;6.092;2022-10-22T15:12:35;9.25;;;2.15;;
23952;SDS011;12163;49.316;6.092;2022-10-22T15:15:01;8.10;;;2.38;;
23952;SDS011;12163;49.316;6.092;2022-10-22T15:17:28;9.30;;;2.42;;
23952;SDS011;12163;49.316;6.092;2022-10-22T15:19:55;9.32;;;2.03;;
23952;SDS011;12163;49.316;6.092;2022-10-22T15:22:24;14.63;;;2.35;;
23952;SDS011;12163;49.316;6.092;2022-10-22T15:24:51;16.50;;;2.75;;
23952;SDS011;12163;49.316;6.092;2022-10-22T15:27:18;7.65;;;2.70;;
23952;SDS011;12163;49.316;6.092;2022-10-22T15:29:45;7.22;;;2.35;;
23952;SDS011;12163;49.316;6.092;2022-10-22T15:32:12;10.57;;;2.38;;
23952;SDS011;12163;49.316;6.092;2022-10-22T15:34:38;8.43;;;2.60;;
23952;SDS011;12163;49.316;6.092;2022-10-22T15:37:07;14.40;;;2.92;;
23952;SDS011;12163;49.316;6.092;2022-10-22T15:39:38;12.90;;;2.55;;
23952;SDS011;12163;49.316;6.092;2022-10-22T15:42:06;19.77;;;2.83;;
23952;SDS011;12163;49.316;6.092;2022-10-22T15:44:33;12.48;;;2.15;;
23952;SDS011;12163;49.316;6.092;2022-10-22T15:47:01;8.68;;;2.50;;
23952;SDS011;12163;49.316;6.092;2022-10-22T15:49:29;12.80;;;2.25;;
23952;SDS011;12163;49.316;6.092;2022-10-22T15:51:56;9.07;;;2.17;;
23952;SDS011;12163;49.316;6.092;2022-10-22T15:54:23;12.25;;;2.40;;
23952;SDS011;12163;49.316;6.092;2022-10-22T15:56:53;6.65;;;2.05;;
23952;SDS011;12163;49.316;6.092;2022-10-22T15:59:21;12.50;;;2.15;;
23952;SDS011;12163;49.316;6.092;2022-10-22T16:01:48;12.07;;;2.65;;
23952;SDS011;12163;49.316;6.092;2022-10-22T16:04:15;9.68;;;2.47;;
23952;SDS011;12163;49.316;6.092;2022-10-22T16:06:49;12.77;;;2.50;;
23952;SDS011;12163;49.316;6.092;2022-10-22T16:09:21;12.75;;;2.40;;
23952;SDS011;12163;49.316;6.092;2022-10-22T16:11:49;11.82;;;2.30;;
23952;SDS011;12163;49.316;6.092;2022-10-22T16:14:22;13.45;;;2.35;;
23952;SDS011;12163;49.316;6.092;2022-10-22T16:16:50;11.30;;;2.25;;
23952;SDS011;12163;49.316;6.092;2022-10-22T16:19:19;13.63;;;2.75;;
23952;SDS011;12163;49.316;6.092;2022-10-22T16:21:50;8.32;;;1.80;;
23952;SDS011;12163;49.316;6.092;2022-10-22T16:26:45;9.00;;;2.78;;
23952;SDS011;12163;49.316;6.092;2022-10-22T16:29:12;14.55;;;2.65;;
23952;SDS011;12163;49.316;6.092;2022-10-22T16:31:40;8.27;;;2.60;;
23952;SDS011;12163;49.316;6.092;2022-10-22T16:34:08;6.28;;;2.28;;
23952;SDS011;12163;49.316;6.092;2022-10-22T16:36:35;14.95;;;2.63;;
23952;SDS011;12163;49.316;6.092;2022-10-22T16:39:02;13.52;;;2.60;;
23952;SDS011;12163;49.316;6.092;2022-10-22T16:41:30;10.02;;;2.28;;
23952;SDS011;12163;49.316;6.092;2022-10-22T16:44:01;10.75;;;2.33;;
23952;SDS011;12163;49.316;6.092;2022-10-22T16:46:30;9.38;;;2.35;;
23952;SDS011;12163;49.316;6.092;2022-10-22T16:48:58;7.40;;;2.40;;
23952;SDS011;12163;49.316;6.092;2022-10-22T16:51:26;14.88;;;2.30;;
23952;SDS011;12163;49.316;6.092;2022-10-22T16:53:54;9.73;;;2.20;;
23952;SDS011;12163;49.316;6.092;2022-10-22T16:56:21;10.68;;;2.38;;
23952;SDS011;12163;49.316;6.092;2022-10-22T16:58:53;14.05;;;2.45;;
23952;SDS011;12163;49.316;6.092;2022-10-22T17:01:23;14.20;;;2.55;;
23952;SDS011;12163;49.316;6.092;2022-10-22T17:03:52;10.73;;;2.72;;
23952;SDS011;12163;49.316;6.092;2022-10-22T17:06:20;11.25;;;2.50;;
23952;SDS011;12163;49.316;6.092;2022-10-22T17:08:47;7.70;;;2.55;;
23952;SDS011;12163;49.316;6.092;2022-10-22T17:11:15;16.13;;;2.80;;
23952;SDS011;12163;49.316;6.092;2022-10-22T17:13:45;9.75;;;2.95;;
23952;SDS011;12163;49.316;6.092;2022-10-22T17:16:14;13.65;;;3.42;;
23952;SDS011;12163;49.316;6.092;2022-10-22T17:18:42;12.48;;;2.67;;
23952;SDS011;12163;49.316;6.092;2022-10-22T17:21:16;8.80;;;3.10;;